sensor_id;sensor_type;location;lat;lon;timestamp;P1;durP1;ratioP1;P2;durP2;ratioP2
23519;SDS011;11936;50.820;4.336;2022-10-22T00:02:16;13.35;;;3.30;;
23519;SDS011;11936;50.820;4.336;2022-10-22T00:04:45;11.45;;;3.13;;
23519;SDS011;11936;50.820;4.336;2022-10-22T00:07:11;16.65;;;4.20;;
23519;SDS011;11936;50.820;4.336;2022-10-22T00:09:37;9.25;;;3.58;;
23519;SDS011;11936;50.820;4.336;2022-10-22T00:12:03;17.75;;;4.32;;
23519;SDS011;11936;50.820;4.336;2022-10-22T00:14:29;10.63;;;3.85;;
23519;SDS011;11936;50.820;4.336;2022-10-22T00:16:54;19.20;;;3.88;;
23519;SDS011;11936;50.820;4.336;2022-10-22T00:19:20;10.00;;;3.08;;
23519;SDS011;11936;50.820;4.336;2022-10-22T00:21:46;12.25;;;3.40;;
23519;SDS011;11936;50.820;4.336;2022-10-22T00:24:11;15.48;;;4.18;;
23519;SDS011;11936;50.820;4.336;2022-10-22T00:26:37;9.48;;;3.30;;
23519;SDS011;11936;50.820;4.336;2022-10-22T00:29:04;11.82;;;3.30;;
23519;SDS011;11936;50.820;4.336;2022-10-22T00:31:30;8.52;;;3.40;;
23519;SDS011;11936;50.820;4.336;2022-10-22T00:33:55;10.57;;;3.35;;
23519;SDS011;11936;50.820;4.336;2022-10-22T00:36:21;10.23;;;3.30;;
23519;SDS011;11936;50.820;4.336;2022-10-22T00:38:47;9.10;;;2.97;;
23519;SDS011;11936;50.820;4.336;2022-10-22T00:41:12;12.82;;;4.18;;
23519;SDS011;11936;50.820;4.336;2022-10-22T00:43:54;11.73;;;3.63;;
23519;SDS011;11936;50.820;4.336;2022-10-22T00:46:24;14.57;;;3.17;;
23519;SDS011;11936;50.820;4.336;2022-10-22T00:48:50;10.15;;;3.20;;
23519;SDS011;11936;50.820;4.336;2022-10-22T00:51:16;7.90;;;3.00;;
23519;SDS011;11936;50.820;4.336;2022-10-22T00:53:46;12.25;;;3.50;;
23519;SDS011;11936;50.820;4.336;2022-10-22T00:56:15;9.65;;;2.70;;
23519;SDS011;11936;50.820;4.336;2022-10-22T00:58:42;6.50;;;2.55;;
23519;SDS011;11936;50.820;4.336;2022-10-22T01:01:13;8.90;;;2.80;;
23519;SDS011;11936;50.820;4.336;2022-10-22T01:03:45;8.52;;;2.67;;
23519;SDS011;11936;50.820;4.336;2022-10-22T01:06:13;9.52;;;3.30;;
23519;SDS011;11936;50.820;4.336;2022-10-22T01:14:18;10.05;;;3.10;;
23519;SDS011;11936;50.820;4.336;2022-10-22T01:19:35;9.02;;;3.28;;
23519;SDS011;11936;50.820;4.336;2022-10-22T01:22:20;9.95;;;3.40;;
23519;SDS011;11936;50.820;4.336;2022-10-22T01:25:04;8.80;;;2.88;;
23519;SDS011;11936;50.820;4.336;2022-10-22T01:30:41;10.23;;;3.15;;
23519;SDS011;11936;50.820;4.336;2022-10-22T01:33:09;11.07;;;2.80;;
23519;SDS011;11936;50.820;4.336;2022-10-22T01:35:40;8.35;;;2.60;;
23519;SDS011;11936;50.820;4.336;2022-10-22T01:38:10;11.18;;;3.20;;
23519;SDS011;11936;50.820;4.336;2022-10-22T01:40:39;16.98;;;3.80;;
23519;SDS011;11936;50.820;4.336;2022-10-22T01:43:07;9.52;;;2.90;;
23519;SDS011;11936;50.820;4.336;2022-10-22T01:45:35;11.82;;;2.67;;
23519;SDS011;11936;50.820;4.336;2022-10-22T01:48:09;12.20;;;3.05;;
23519;SDS011;11936;50.820;4.336;2022-10-22T01:53:29;9.65;;;2.92;;
23519;SDS011;11936;50.820;4.336;2022-10-22T01:59:07;7.75;;;2.40;;
23519;SDS011;11936;50.820;4.336;2022-10-22T02:06:55;5.13;;;2.40;;
23519;SDS011;11936;50.820;4.336;2022-10-22T02:09:24;6.28;;;2.15;;
23519;SDS011;11936;50.820;4.336;2022-10-22T02:11:52;8.13;;;2.23;;
23519;SDS011;11936;50.820;4.336;2022-10-22T02:14:21;12.63;;;2.30;;
23519;SDS011;11936;50.820;4.336;2022-10-22T02:16:48;8.30;;;2.50;;
23519;SDS011;11936;50.820;4.336;2022-10-22T02:19:16;8.25;;;3.10;;
23519;SDS011;11936;50.820;4.336;2022-10-22T02:21:48;6.75;;;2.72;;
23519;SDS011;11936;50.820;4.336;2022-10-22T02:24:14;8.18;;;2.67;;
23519;SDS011;11936;50.820;4.336;2022-10-22T02:29:40;11.02;;;2.50;;
23519;SDS011;11936;50.820;4.336;2022-10-22T02:32:13;14.35;;;2.42;;
23519;SDS011;11936;50.820;4.336;2022-10-22T02:34:43;10.13;;;2.15;;
23519;SDS011;11936;50.820;4.336;2022-10-22T02:37:11;11.65;;;2.40;;
23519;SDS011;11936;50.820;4.336;2022-10-22T02:39:37;9.80;;;2.38;;
23519;SDS011;11936;50.820;4.336;2022-10-22T02:42:03;9.13;;;2.70;;
23519;SDS011;11936;50.820;4.336;2022-10-22T02:44:29;6.35;;;2.22;;
23519;SDS011;11936;50.820;4.336;2022-10-22T02:46:55;15.90;;;2.83;;
23519;SDS011;11936;50.820;4.336;2022-10-22T02:49:21;5.93;;;2.13;;
23519;SDS011;11936;50.820;4.336;2022-10-22T02:51:47;5.38;;;2.15;;
23519;SDS011;11936;50.820;4.336;2022-10-22T02:54:12;9.77;;;2.72;;
23519;SDS011;11936;50.820;4.336;2022-10-22T02:56:38;9.07;;;2.40;;
23519;SDS011;11936;50.820;4.336;2022-10-22T02:59:04;7.40;;;2.05;;
23519;SDS011;11936;50.820;4.336;2022-10-22T03:01:29;10.35;;;2.17;;
23519;SDS011;11936;50.820;4.336;2022-10-22T03:03:55;13.98;;;2.33;;
23519;SDS011;11936;50.820;4.336;2022-10-22T03:06:21;7.13;;;2.35;;
23519;SDS011;11936;50.820;4.336;2022-10-22T03:08:46;10.23;;;2.20;;
23519;SDS011;11936;50.820;4.336;2022-10-22T03:11:12;8.88;;;2.45;;
23519;SDS011;11936;50.820;4.336;2022-10-22T03:13:37;4.80;;;1.85;;
23519;SDS011;11936;50.820;4.336;2022-10-22T03:16:03;7.40;;;2.58;;
23519;SDS011;11936;50.820;4.336;2022-10-22T03:18:29;6.50;;;2.15;;
23519;SDS011;11936;50.820;4.336;2022-10-22T03:21:05;11.48;;;2.50;;
23519;SDS011;11936;50.820;4.336;2022-10-22T03:23:35;9.23;;;2.38;;
23519;SDS011;11936;50.820;4.336;2022-10-22T03:26:02;8.10;;;2.10;;
23519;SDS011;11936;50.820;4.336;2022-10-22T03:28:29;12.05;;;2.25;;
23519;SDS011;11936;50.820;4.336;2022-10-22T03:30:54;7.60;;;1.83;;
23519;SDS011;11936;50.820;4.336;2022-10-22T03:33:20;13.20;;;2.70;;
23519;SDS011;11936;50.820;4.336;2022-10-22T03:35:45;8.48;;;2.00;;
23519;SDS011;11936;50.820;4.336;2022-10-22T03:38:12;10.93;;;2.15;;
23519;SDS011;11936;50.820;4.336;2022-10-22T03:40:39;10.07;;;2.30;;
23519;SDS011;11936;50.820;4.336;2022-10-22T03:43:06;8.55;;;2.60;;
23519;SDS011;11936;50.820;4.336;2022-10-22T03:45:32;7.53;;;2.10;;
23519;SDS011;11936;50.820;4.336;2022-10-22T03:47:58;5.53;;;2.13;;
23519;SDS011;11936;50.820;4.336;2022-10-22T03:50:23;5.68;;;1.75;;
23519;SDS011;11936;50.820;4.336;2022-10-22T03:52:49;7.65;;;2.05;;
23519;SDS011;11936;50.820;4.336;2022-10-22T03:55:15;20.52;;;2.63;;
23519;SDS011;11936;50.820;4.336;2022-10-22T03:57:40;9.77;;;2.35;;
23519;SDS011;11936;50.820;4.336;2022-10-22T04:00:06;11.38;;;2.08;;
23519;SDS011;11936;50.820;4.336;2022-10-22T04:02:32;6.95;;;1.90;;
23519;SDS011;11936;50.820;4.336;2022-10-22T04:04:58;9.63;;;2.28;;
23519;SDS011;11936;50.820;4.336;2022-10-22T04:07:24;13.52;;;2.17;;
23519;SDS011;11936;50.820;4.336;2022-10-22T04:09:49;12.40;;;2.47;;
23519;SDS011;11936;50.820;4.336;2022-10-22T04:12:15;11.40;;;2.72;;
23519;SDS011;11936;50.820;4.336;2022-10-22T04:14:40;7.40;;;2.17;;
23519;SDS011;11936;50.820;4.336;2022-10-22T04:17:06;13.77;;;3.67;;
23519;SDS011;11936;50.820;4.336;2022-10-22T04:19:32;13.75;;;2.85;;
23519;SDS011;11936;50.820;4.336;2022-10-22T04:21:58;9.43;;;2.20;;
23519;SDS011;11936;50.820;4.336;2022-10-22T04:24:24;7.97;;;2.72;;
23519;SDS011;11936;50.820;4.336;2022-10-22T04:26:52;5.95;;;2.30;;
23519;SDS011;11936;50.820;4.336;2022-10-22T04:29:18;7.93;;;2.20;;
23519;SDS011;11936;50.820;4.336;2022-10-22T04:31:44;10.23;;;2.40;;
23519;SDS011;11936;50.820;4.336;2022-10-22T04:34:09;7.18;;;2.00;;
23519;SDS011;11936;50.820;4.336;2022-10-22T04:36:35;11.23;;;3.08;;
23519;SDS011;11936;50.820;4.336;2022-10-22T04:39:01;7.80;;;1.77;;
23519;SDS011;11936;50.820;4.336;2022-10-22T04:41:30;11.88;;;2.58;;
23519;SDS011;11936;50.820;4.336;2022-10-22T04:43:57;8.35;;;1.85;;
23519;SDS011;11936;50.820;4.336;2022-10-22T04:46:25;6.15;;;2.25;;
23519;SDS011;11936;50.820;4.336;2022-10-22T04:48:52;13.35;;;2.20;;
23519;SDS011;11936;50.820;4.336;2022-10-22T04:51:19;7.97;;;2.30;;
23519;SDS011;11936;50.820;4.336;2022-10-22T04:53:46;12.23;;;2.30;;
23519;SDS011;11936;50.820;4.336;2022-10-22T04:56:14;13.35;;;2.53;;
23519;SDS011;11936;50.820;4.336;2022-10-22T04:58:43;12.35;;;2.83;;
23519;SDS011;11936;50.820;4.336;2022-10-22T05:03:40;10.45;;;2.22;;
23519;SDS011;11936;50.820;4.336;2022-10-22T05:06:06;8.13;;;2.25;;
23519;SDS011;11936;50.820;4.336;2022-10-22T05:08:32;10.60;;;2.42;;
23519;SDS011;11936;50.820;4.336;2022-10-22T05:10:58;7.30;;;2.25;;
23519;SDS011;11936;50.820;4.336;2022-10-22T05:13:23;9.43;;;2.35;;
23519;SDS011;11936;50.820;4.336;2022-10-22T05:15:49;9.20;;;2.05;;
23519;SDS011;11936;50.820;4.336;2022-10-22T05:18:14;11.88;;;2.10;;
23519;SDS011;11936;50.820;4.336;2022-10-22T05:20:40;11.80;;;1.80;;
23519;SDS011;11936;50.820;4.336;2022-10-22T05:23:06;11.40;;;2.47;;
23519;SDS011;11936;50.820;4.336;2022-10-22T05:25:36;6.97;;;1.67;;
23519;SDS011;11936;50.820;4.336;2022-10-22T05:28:02;8.38;;;2.42;;
23519;SDS011;11936;50.820;4.336;2022-10-22T05:30:28;10.32;;;2.70;;
23519;SDS011;11936;50.820;4.336;2022-10-22T05:32:53;12.25;;;2.22;;
23519;SDS011;11936;50.820;4.336;2022-10-22T05:35:19;11.15;;;2.50;;
23519;SDS011;11936;50.820;4.336;2022-10-22T05:37:45;16.33;;;3.08;;
23519;SDS011;11936;50.820;4.336;2022-10-22T05:40:10;8.45;;;2.15;;
23519;SDS011;11936;50.820;4.336;2022-10-22T05:42:36;11.18;;;2.20;;
23519;SDS011;11936;50.820;4.336;2022-10-22T05:45:02;9.63;;;2.38;;
23519;SDS011;11936;50.820;4.336;2022-10-22T05:47:28;7.97;;;2.22;;
23519;SDS011;11936;50.820;4.336;2022-10-22T05:49:54;9.57;;;2.03;;
23519;SDS011;11936;50.820;4.336;2022-10-22T05:52:21;10.88;;;2.00;;
23519;SDS011;11936;50.820;4.336;2022-10-22T05:54:48;8.35;;;2.00;;
23519;SDS011;11936;50.820;4.336;2022-10-22T05:57:13;9.00;;;2.08;;
23519;SDS011;11936;50.820;4.336;2022-10-22T05:59:42;18.52;;;2.50;;
23519;SDS011;11936;50.820;4.336;2022-10-22T06:02:08;9.23;;;2.47;;
23519;SDS011;11936;50.820;4.336;2022-10-22T06:04:34;4.85;;;2.15;;
23519;SDS011;11936;50.820;4.336;2022-10-22T06:07:00;11.20;;;2.47;;
23519;SDS011;11936;50.820;4.336;2022-10-22T06:11:52;12.27;;;2.58;;
23519;SDS011;11936;50.820;4.336;2022-10-22T06:14:18;8.93;;;2.30;;
23519;SDS011;11936;50.820;4.336;2022-10-22T06:16:44;5.35;;;2.03;;
23519;SDS011;11936;50.820;4.336;2022-10-22T06:19:13;13.95;;;2.78;;
23519;SDS011;11936;50.820;4.336;2022-10-22T06:21:41;8.60;;;1.98;;
23519;SDS011;11936;50.820;4.336;2022-10-22T06:24:07;9.35;;;1.95;;
23519;SDS011;11936;50.820;4.336;2022-10-22T06:26:34;8.02;;;2.20;;
23519;SDS011;11936;50.820;4.336;2022-10-22T06:28:59;11.50;;;2.75;;
23519;SDS011;11936;50.820;4.336;2022-10-22T06:31:25;10.00;;;1.92;;
23519;SDS011;11936;50.820;4.336;2022-10-22T06:33:51;8.25;;;2.17;;
23519;SDS011;11936;50.820;4.336;2022-10-22T06:36:19;8.82;;;1.83;;
23519;SDS011;11936;50.820;4.336;2022-10-22T06:38:50;14.07;;;2.63;;
23519;SDS011;11936;50.820;4.336;2022-10-22T06:41:16;18.67;;;2.92;;
23519;SDS011;11936;50.820;4.336;2022-10-22T06:43:42;8.68;;;2.22;;
23519;SDS011;11936;50.820;4.336;2022-10-22T06:46:09;10.15;;;2.47;;
23519;SDS011;11936;50.820;4.336;2022-10-22T06:48:36;7.13;;;2.20;;
23519;SDS011;11936;50.820;4.336;2022-10-22T06:51:03;9.57;;;2.30;;
23519;SDS011;11936;50.820;4.336;2022-10-22T06:53:30;9.85;;;2.92;;
23519;SDS011;11936;50.820;4.336;2022-10-22T06:55:55;9.18;;;2.00;;
23519;SDS011;11936;50.820;4.336;2022-10-22T06:58:21;14.32;;;2.15;;
23519;SDS011;11936;50.820;4.336;2022-10-22T07:00:46;6.10;;;1.73;;
23519;SDS011;11936;50.820;4.336;2022-10-22T07:03:12;12.25;;;3.00;;
23519;SDS011;11936;50.820;4.336;2022-10-22T07:05:39;8.20;;;2.33;;
23519;SDS011;11936;50.820;4.336;2022-10-22T07:08:05;11.23;;;1.90;;
23519;SDS011;11936;50.820;4.336;2022-10-22T07:10:31;8.52;;;2.30;;
23519;SDS011;11936;50.820;4.336;2022-10-22T07:12:56;11.98;;;1.85;;
23519;SDS011;11936;50.820;4.336;2022-10-22T07:15:22;8.52;;;2.10;;
23519;SDS011;11936;50.820;4.336;2022-10-22T07:17:49;8.60;;;2.05;;
23519;SDS011;11936;50.820;4.336;2022-10-22T07:20:15;8.07;;;2.08;;
23519;SDS011;11936;50.820;4.336;2022-10-22T07:22:43;12.20;;;2.63;;
23519;SDS011;11936;50.820;4.336;2022-10-22T07:25:09;8.30;;;2.45;;
23519;SDS011;11936;50.820;4.336;2022-10-22T07:27:34;9.27;;;2.40;;
23519;SDS011;11936;50.820;4.336;2022-10-22T07:30:00;7.28;;;2.03;;
23519;SDS011;11936;50.820;4.336;2022-10-22T07:32:26;7.82;;;2.40;;
23519;SDS011;11936;50.820;4.336;2022-10-22T07:34:51;6.47;;;2.20;;
23519;SDS011;11936;50.820;4.336;2022-10-22T07:37:17;9.35;;;2.72;;
23519;SDS011;11936;50.820;4.336;2022-10-22T07:39:46;8.30;;;1.60;;
23519;SDS011;11936;50.820;4.336;2022-10-22T07:42:12;8.80;;;2.08;;
23519;SDS011;11936;50.820;4.336;2022-10-22T07:44:37;8.50;;;2.25;;
23519;SDS011;11936;50.820;4.336;2022-10-22T07:47:03;10.02;;;2.35;;
23519;SDS011;11936;50.820;4.336;2022-10-22T07:49:29;14.13;;;2.17;;
23519;SDS011;11936;50.820;4.336;2022-10-22T07:51:54;13.05;;;2.60;;
23519;SDS011;11936;50.820;4.336;2022-10-22T07:54:21;8.90;;;1.85;;
23519;SDS011;11936;50.820;4.336;2022-10-22T07:56:47;9.60;;;2.40;;
23519;SDS011;11936;50.820;4.336;2022-10-22T07:59:12;4.50;;;1.67;;
23519;SDS011;11936;50.820;4.336;2022-10-22T08:01:38;14.05;;;2.53;;
23519;SDS011;11936;50.820;4.336;2022-10-22T08:04:03;10.40;;;2.42;;
23519;SDS011;11936;50.820;4.336;2022-10-22T08:06:32;9.10;;;1.83;;
23519;SDS011;11936;50.820;4.336;2022-10-22T08:08:58;9.20;;;2.25;;
23519;SDS011;11936;50.820;4.336;2022-10-22T08:11:24;8.43;;;3.28;;
23519;SDS011;11936;50.820;4.336;2022-10-22T08:13:50;8.40;;;2.10;;
23519;SDS011;11936;50.820;4.336;2022-10-22T08:16:17;6.05;;;2.22;;
23519;SDS011;11936;50.820;4.336;2022-10-22T08:18:43;10.55;;;2.15;;
23519;SDS011;11936;50.820;4.336;2022-10-22T08:21:09;9.80;;;2.20;;
23519;SDS011;11936;50.820;4.336;2022-10-22T08:23:35;10.13;;;2.28;;
23519;SDS011;11936;50.820;4.336;2022-10-22T08:26:01;8.65;;;2.45;;
23519;SDS011;11936;50.820;4.336;2022-10-22T08:28:27;9.43;;;2.10;;
23519;SDS011;11936;50.820;4.336;2022-10-22T08:30:55;8.57;;;2.17;;
23519;SDS011;11936;50.820;4.336;2022-10-22T08:33:20;7.60;;;1.88;;
23519;SDS011;11936;50.820;4.336;2022-10-22T08:35:47;10.13;;;2.15;;
23519;SDS011;11936;50.820;4.336;2022-10-22T08:38:13;7.03;;;1.83;;
23519;SDS011;11936;50.820;4.336;2022-10-22T08:40:39;12.90;;;2.30;;
23519;SDS011;11936;50.820;4.336;2022-10-22T08:48:56;8.65;;;2.20;;
23519;SDS011;11936;50.820;4.336;2022-10-22T08:51:23;11.65;;;2.88;;
23519;SDS011;11936;50.820;4.336;2022-10-22T08:56:34;9.75;;;2.85;;
23519;SDS011;11936;50.820;4.336;2022-10-22T08:59:16;9.63;;;2.28;;
23519;SDS011;11936;50.820;4.336;2022-10-22T09:02:07;8.35;;;2.53;;
23519;SDS011;11936;50.820;4.336;2022-10-22T09:04:46;6.80;;;2.30;;
23519;SDS011;11936;50.820;4.336;2022-10-22T09:07:23;9.63;;;2.40;;
23519;SDS011;11936;50.820;4.336;2022-10-22T09:09:49;8.40;;;2.15;;
23519;SDS011;11936;50.820;4.336;2022-10-22T09:12:18;7.38;;;1.98;;
23519;SDS011;11936;50.820;4.336;2022-10-22T09:14:47;10.13;;;2.72;;
23519;SDS011;11936;50.820;4.336;2022-10-22T09:17:28;8.55;;;2.22;;
23519;SDS011;11936;50.820;4.336;2022-10-22T09:23:04;11.32;;;3.08;;
23519;SDS011;11936;50.820;4.336;2022-10-22T09:25:49;21.02;;;3.05;;
23519;SDS011;11936;50.820;4.336;2022-10-22T09:28:19;8.68;;;2.30;;
23519;SDS011;11936;50.820;4.336;2022-10-22T09:30:45;6.35;;;2.30;;
23519;SDS011;11936;50.820;4.336;2022-10-22T09:33:22;13.27;;;2.40;;
23519;SDS011;11936;50.820;4.336;2022-10-22T09:35:54;10.80;;;2.50;;
23519;SDS011;11936;50.820;4.336;2022-10-22T09:38:28;9.77;;;2.55;;
23519;SDS011;11936;50.820;4.336;2022-10-22T09:40:57;7.03;;;2.22;;
23519;SDS011;11936;50.820;4.336;2022-10-22T09:43:24;9.75;;;2.13;;
23519;SDS011;11936;50.820;4.336;2022-10-22T09:46:00;13.15;;;2.85;;
23519;SDS011;11936;50.820;4.336;2022-10-22T09:48:29;11.88;;;2.60;;
23519;SDS011;11936;50.820;4.336;2022-10-22T09:51:03;9.90;;;2.67;;
23519;SDS011;11936;50.820;4.336;2022-10-22T09:53:43;8.90;;;2.53;;
23519;SDS011;11936;50.820;4.336;2022-10-22T09:56:24;7.75;;;2.35;;
23519;SDS011;11936;50.820;4.336;2022-10-22T10:01:26;9.73;;;2.35;;
23519;SDS011;11936;50.820;4.336;2022-10-22T10:04:00;11.38;;;2.67;;
23519;SDS011;11936;50.820;4.336;2022-10-22T10:06:29;10.15;;;2.08;;
23519;SDS011;11936;50.820;4.336;2022-10-22T10:08:57;9.35;;;1.65;;
23519;SDS011;11936;50.820;4.336;2022-10-22T10:16:48;12.00;;;2.58;;
23519;SDS011;11936;50.820;4.336;2022-10-22T10:19:19;8.27;;;2.45;;
23519;SDS011;11936;50.820;4.336;2022-10-22T10:30:21;16.95;;;2.75;;
23519;SDS011;11936;50.820;4.336;2022-10-22T10:35:23;11.85;;;3.00;;
23519;SDS011;11936;50.820;4.336;2022-10-22T10:40:49;17.77;;;2.60;;
23519;SDS011;11936;50.820;4.336;2022-10-22T10:54:07;10.70;;;2.72;;
23519;SDS011;11936;50.820;4.336;2022-10-22T10:56:59;10.15;;;2.83;;
23519;SDS011;11936;50.820;4.336;2022-10-22T11:02:41;15.50;;;3.35;;
23519;SDS011;11936;50.820;4.336;2022-10-22T11:05:31;10.40;;;2.83;;
23519;SDS011;11936;50.820;4.336;2022-10-22T11:10:56;9.88;;;2.38;;
23519;SDS011;11936;50.820;4.336;2022-10-22T11:13:44;22.55;;;2.78;;
23519;SDS011;11936;50.820;4.336;2022-10-22T11:16:34;10.60;;;2.55;;
23519;SDS011;11936;50.820;4.336;2022-10-22T11:21:50;12.27;;;2.97;;
23519;SDS011;11936;50.820;4.336;2022-10-22T11:24:23;10.77;;;2.47;;
23519;SDS011;11936;50.820;4.336;2022-10-22T11:27:14;15.55;;;2.65;;
23519;SDS011;11936;50.820;4.336;2022-10-22T11:29:45;7.78;;;1.63;;
23519;SDS011;11936;50.820;4.336;2022-10-22T11:32:17;6.03;;;1.85;;
23519;SDS011;11936;50.820;4.336;2022-10-22T11:34:47;12.20;;;2.60;;
23519;SDS011;11936;50.820;4.336;2022-10-22T11:37:25;7.55;;;1.95;;
23519;SDS011;11936;50.820;4.336;2022-10-22T11:42:45;8.57;;;2.80;;
23519;SDS011;11936;50.820;4.336;2022-10-22T11:53:16;15.77;;;2.83;;
23519;SDS011;11936;50.820;4.336;2022-10-22T12:00:51;5.13;;;1.95;;
23519;SDS011;11936;50.820;4.336;2022-10-22T12:03:18;11.30;;;2.25;;
23519;SDS011;11936;50.820;4.336;2022-10-22T12:08:42;6.57;;;1.58;;
23519;SDS011;11936;50.820;4.336;2022-10-22T12:19:00;13.10;;;2.65;;
23519;SDS011;11936;50.820;4.336;2022-10-22T12:21:37;7.32;;;2.17;;
23519;SDS011;11936;50.820;4.336;2022-10-22T12:24:05;8.32;;;1.75;;
23519;SDS011;11936;50.820;4.336;2022-10-22T12:26:31;8.80;;;2.08;;
23519;SDS011;11936;50.820;4.336;2022-10-22T12:29:01;11.00;;;1.63;;
23519;SDS011;11936;50.820;4.336;2022-10-22T12:31:35;13.80;;;1.90;;
23519;SDS011;11936;50.820;4.336;2022-10-22T12:34:03;8.77;;;1.77;;
23519;SDS011;11936;50.820;4.336;2022-10-22T12:36:29;7.18;;;2.13;;
23519;SDS011;11936;50.820;4.336;2022-10-22T12:39:08;7.53;;;1.80;;
23519;SDS011;11936;50.820;4.336;2022-10-22T12:41:38;7.30;;;1.73;;
23519;SDS011;11936;50.820;4.336;2022-10-22T12:44:05;5.03;;;1.30;;
23519;SDS011;11936;50.820;4.336;2022-10-22T12:46:33;11.05;;;2.40;;
23519;SDS011;11936;50.820;4.336;2022-10-22T12:49:04;8.55;;;1.90;;
23519;SDS011;11936;50.820;4.336;2022-10-22T12:51:32;8.65;;;2.10;;
23519;SDS011;11936;50.820;4.336;2022-10-22T12:54:05;7.32;;;1.65;;
23519;SDS011;11936;50.820;4.336;2022-10-22T12:56:34;8.57;;;2.03;;
23519;SDS011;11936;50.820;4.336;2022-10-22T12:59:02;5.63;;;1.25;;
23519;SDS011;11936;50.820;4.336;2022-10-22T13:01:38;7.13;;;2.13;;
23519;SDS011;11936;50.820;4.336;2022-10-22T13:06:44;4.55;;;1.65;;
23519;SDS011;11936;50.820;4.336;2022-10-22T13:09:13;6.30;;;1.80;;
23519;SDS011;11936;50.820;4.336;2022-10-22T13:12:03;9.90;;;1.60;;
23519;SDS011;11936;50.820;4.336;2022-10-22T13:14:31;7.90;;;2.67;;
23519;SDS011;11936;50.820;4.336;2022-10-22T13:17:17;4.35;;;1.65;;
23519;SDS011;11936;50.820;4.336;2022-10-22T13:24:51;11.57;;;1.90;;
23519;SDS011;11936;50.820;4.336;2022-10-22T13:27:17;9.75;;;1.60;;
23519;SDS011;11936;50.820;4.336;2022-10-22T13:29:43;4.40;;;1.38;;
23519;SDS011;11936;50.820;4.336;2022-10-22T13:34:57;7.88;;;1.85;;
23519;SDS011;11936;50.820;4.336;2022-10-22T13:39:51;6.70;;;2.13;;
23519;SDS011;11936;50.820;4.336;2022-10-22T13:42:17;11.13;;;2.30;;
23519;SDS011;11936;50.820;4.336;2022-10-22T13:44:42;9.45;;;2.17;;
23519;SDS011;11936;50.820;4.336;2022-10-22T13:47:41;11.32;;;2.08;;
23519;SDS011;11936;50.820;4.336;2022-10-22T13:50:01;9.55;;;2.40;;
23519;SDS011;11936;50.820;4.336;2022-10-22T13:55:12;11.57;;;1.83;;
23519;SDS011;11936;50.820;4.336;2022-10-22T13:57:45;9.45;;;1.85;;
23519;SDS011;11936;50.820;4.336;2022-10-22T14:00:13;9.48;;;1.92;;
23519;SDS011;11936;50.820;4.336;2022-10-22T14:02:43;5.05;;;1.60;;
23519;SDS011;11936;50.820;4.336;2022-10-22T14:07:37;8.45;;;1.90;;
23519;SDS011;11936;50.820;4.336;2022-10-22T14:12:58;7.60;;;1.65;;
23519;SDS011;11936;50.820;4.336;2022-10-22T14:15:24;10.15;;;2.03;;
23519;SDS011;11936;50.820;4.336;2022-10-22T14:17:53;5.72;;;1.42;;
23519;SDS011;11936;50.820;4.336;2022-10-22T14:20:22;6.00;;;1.90;;
23519;SDS011;11936;50.820;4.336;2022-10-22T14:22:50;11.80;;;2.55;;
23519;SDS011;11936;50.820;4.336;2022-10-22T14:25:16;8.60;;;2.58;;
23519;SDS011;11936;50.820;4.336;2022-10-22T14:27:44;10.77;;;2.03;;
23519;SDS011;11936;50.820;4.336;2022-10-22T14:30:13;6.65;;;1.83;;
23519;SDS011;11936;50.820;4.336;2022-10-22T14:32:41;12.77;;;1.88;;
23519;SDS011;11936;50.820;4.336;2022-10-22T14:35:09;12.63;;;1.85;;
23519;SDS011;11936;50.820;4.336;2022-10-22T14:37:37;6.82;;;1.70;;
23519;SDS011;11936;50.820;4.336;2022-10-22T14:40:02;5.78;;;1.90;;
23519;SDS011;11936;50.820;4.336;2022-10-22T14:42:28;6.18;;;1.42;;
23519;SDS011;11936;50.820;4.336;2022-10-22T14:44:54;11.82;;;2.03;;
23519;SDS011;11936;50.820;4.336;2022-10-22T14:47:20;5.60;;;1.80;;
23519;SDS011;11936;50.820;4.336;2022-10-22T14:49:45;12.20;;;2.42;;
23519;SDS011;11936;50.820;4.336;2022-10-22T14:52:11;7.38;;;1.65;;
23519;SDS011;11936;50.820;4.336;2022-10-22T14:54:36;5.75;;;1.67;;
23519;SDS011;11936;50.820;4.336;2022-10-22T14:57:02;6.03;;;1.92;;
23519;SDS011;11936;50.820;4.336;2022-10-22T14:59:28;7.63;;;2.33;;
23519;SDS011;11936;50.820;4.336;2022-10-22T15:01:54;10.48;;;2.10;;
23519;SDS011;11936;50.820;4.336;2022-10-22T15:04:20;5.97;;;1.67;;
23519;SDS011;11936;50.820;4.336;2022-10-22T15:06:46;6.15;;;2.05;;
23519;SDS011;11936;50.820;4.336;2022-10-22T15:09:12;8.23;;;2.13;;
23519;SDS011;11936;50.820;4.336;2022-10-22T15:11:37;7.90;;;1.55;;
23519;SDS011;11936;50.820;4.336;2022-10-22T15:14:03;8.98;;;2.17;;
23519;SDS011;11936;50.820;4.336;2022-10-22T15:16:29;7.72;;;2.25;;
23519;SDS011;11936;50.820;4.336;2022-10-22T15:18:54;15.13;;;2.20;;
23519;SDS011;11936;50.820;4.336;2022-10-22T15:21:21;7.45;;;2.55;;
23519;SDS011;11936;50.820;4.336;2022-10-22T15:23:47;4.60;;;1.73;;
23519;SDS011;11936;50.820;4.336;2022-10-22T15:26:14;5.60;;;1.63;;
23519;SDS011;11936;50.820;4.336;2022-10-22T15:28:40;6.95;;;2.00;;
23519;SDS011;11936;50.820;4.336;2022-10-22T15:31:07;15.43;;;3.17;;
23519;SDS011;11936;50.820;4.336;2022-10-22T15:33:35;7.05;;;2.28;;
23519;SDS011;11936;50.820;4.336;2022-10-22T15:36:08;6.20;;;2.08;;
23519;SDS011;11936;50.820;4.336;2022-10-22T15:38:35;8.73;;;2.15;;
23519;SDS011;11936;50.820;4.336;2022-10-22T15:41:04;9.43;;;1.95;;
23519;SDS011;11936;50.820;4.336;2022-10-22T15:43:31;11.15;;;2.05;;
23519;SDS011;11936;50.820;4.336;2022-10-22T15:46:31;7.30;;;2.05;;
23519;SDS011;11936;50.820;4.336;2022-10-22T15:48:51;8.23;;;2.10;;
23519;SDS011;11936;50.820;4.336;2022-10-22T15:51:18;8.77;;;1.80;;
23519;SDS011;11936;50.820;4.336;2022-10-22T15:53:50;5.32;;;2.40;;
23519;SDS011;11936;50.820;4.336;2022-10-22T15:56:20;6.28;;;2.38;;
23519;SDS011;11936;50.820;4.336;2022-10-22T15:58:46;5.07;;;2.10;;
23519;SDS011;11936;50.820;4.336;2022-10-22T16:01:12;13.68;;;2.53;;
23519;SDS011;11936;50.820;4.336;2022-10-22T16:03:39;10.00;;;2.20;;
23519;SDS011;11936;50.820;4.336;2022-10-22T16:06:06;6.75;;;1.95;;
23519;SDS011;11936;50.820;4.336;2022-10-22T16:08:33;7.15;;;2.58;;
23519;SDS011;11936;50.820;4.336;2022-10-22T16:10:58;15.20;;;2.28;;
23519;SDS011;11936;50.820;4.336;2022-10-22T16:13:24;8.13;;;2.42;;
23519;SDS011;11936;50.820;4.336;2022-10-22T16:15:50;7.18;;;2.30;;
23519;SDS011;11936;50.820;4.336;2022-10-22T16:18:17;7.72;;;2.30;;
23519;SDS011;11936;50.820;4.336;2022-10-22T16:20:43;5.47;;;2.15;;
23519;SDS011;11936;50.820;4.336;2022-10-22T16:23:09;8.20;;;2.10;;
23519;SDS011;11936;50.820;4.336;2022-10-22T16:25:38;7.13;;;2.30;;
23519;SDS011;11936;50.820;4.336;2022-10-22T16:28:07;10.00;;;3.05;;
23519;SDS011;11936;50.820;4.336;2022-10-22T16:30:35;7.82;;;2.55;;
23519;SDS011;11936;50.820;4.336;2022-10-22T16:33:02;6.57;;;2.28;;
23519;SDS011;11936;50.820;4.336;2022-10-22T16:35:29;5.55;;;2.13;;
23519;SDS011;11936;50.820;4.336;2022-10-22T16:37:55;10.40;;;2.90;;
23519;SDS011;11936;50.820;4.336;2022-10-22T16:40:21;9.30;;;3.63;;
23519;SDS011;11936;50.820;4.336;2022-10-22T16:42:47;11.20;;;4.40;;
23519;SDS011;11936;50.820;4.336;2022-10-22T16:45:13;10.30;;;4.75;;
23519;SDS011;11936;50.820;4.336;2022-10-22T16:47:38;12.95;;;4.85;;
23519;SDS011;11936;50.820;4.336;2022-10-22T16:50:06;15.30;;;5.17;;
23519;SDS011;11936;50.820;4.336;2022-10-22T16:52:33;16.00;;;5.13;;
23519;SDS011;11936;50.820;4.336;2022-10-22T16:54:58;13.13;;;3.55;;
23519;SDS011;11936;50.820;4.336;2022-10-22T16:57:25;13.90;;;4.75;;
23519;SDS011;11936;50.820;4.336;2022-10-22T16:59:51;16.27;;;3.42;;
23519;SDS011;11936;50.820;4.336;2022-10-22T17:02:17;9.25;;;3.10;;